createdAt,value
2022-10-17T00:02:13.254Z,66.47
2022-10-17T00:04:44.496Z,66.55
2022-10-17T00:07:15.498Z,66.71
2022-10-17T00:09:46.946Z,66.70
2022-10-17T00:12:17.926Z,66.70
2022-10-17T00:14:48.973Z,66.68
2022-10-17T00:17:19.920Z,66.67
2022-10-17T00:19:50.951Z,66.56
2022-10-17T00:22:22.047Z,66.44
2022-10-17T00:24:53.374Z,66.64
2022-10-17T00:27:24.341Z,66.73
2022-10-17T00:29:55.660Z,66.60
2022-10-17T00:32:27.063Z,66.73
2022-10-17T00:34:58.553Z,66.83
2022-10-17T00:37:31.019Z,66.91
2022-10-17T00:40:02.201Z,66.91
2022-10-17T00:42:33.241Z,66.95
2022-10-17T00:45:18.925Z,66.92
2022-10-17T00:47:52.843Z,66.96
2022-10-17T00:50:25.395Z,67.19
2022-10-17T00:53:00.122Z,67.37
2022-10-17T00:55:36.802Z,67.42
2022-10-17T00:58:09.594Z,67.45
2022-10-17T01:00:41.634Z,67.69
2022-10-17T01:03:12.703Z,67.59
2022-10-17T01:05:44.746Z,67.49
2022-10-17T01:08:16.314Z,67.60
2022-10-17T01:10:59.267Z,67.62
2022-10-17T01:17:28.570Z,67.63
2022-10-17T01:20:30.713Z,67.61
2022-10-17T01:26:20.338Z,67.66
2022-10-17T01:29:14.661Z,67.41
2022-10-17T01:31:50.009Z,67.40
2022-10-17T01:34:30.958Z,67.50
2022-10-17T01:37:07.909Z,67.58
2022-10-17T01:39:45.661Z,67.44
2022-10-17T01:42:25.810Z,67.41
2022-10-17T01:45:02.934Z,67.40
2022-10-17T01:47:33.640Z,67.56
2022-10-17T01:50:12.717Z,67.74
2022-10-17T01:52:48.002Z,67.61
2022-10-17T01:55:24.430Z,67.69
2022-10-17T01:57:59.130Z,67.71
2022-10-17T02:00:33.096Z,67.76
2022-10-17T02:03:08.822Z,67.86
2022-10-17T02:05:43.810Z,67.89
2022-10-17T02:08:15.781Z,68.06
2022-10-17T02:10:53.915Z,68.17
2022-10-17T02:13:36.576Z,68.22
2022-10-17T02:16:20.692Z,68.21
2022-10-17T02:19:14.964Z,68.33
2022-10-17T02:21:53.332Z,68.31
2022-10-17T02:24:34.696Z,68.36
2022-10-17T02:27:13.230Z,68.51
2022-10-17T02:29:49.089Z,68.62
2022-10-17T02:32:26.303Z,68.42
2022-10-17T02:35:01.228Z,68.50
2022-10-17T02:37:33.967Z,68.48
2022-10-17T02:40:08.151Z,68.65
2022-10-17T02:42:43.798Z,68.64
2022-10-17T02:45:16.613Z,68.59
2022-10-17T02:47:55.332Z,68.58
2022-10-17T02:50:34.653Z,68.73
2022-10-17T02:53:12.067Z,68.79
2022-10-17T02:55:49.868Z,68.74
2022-10-17T02:58:25.018Z,68.73
2022-10-17T03:00:56.160Z,68.87
2022-10-17T03:03:30.136Z,68.96
2022-10-17T03:06:04.788Z,68.87
2022-10-17T03:08:35.809Z,68.98
2022-10-17T03:11:07.819Z,68.97
2022-10-17T03:13:39.950Z,69.02
2022-10-17T03:16:11.518Z,68.95
2022-10-17T03:18:45.386Z,69.05
2022-10-17T03:21:19.207Z,69.13
2022-10-17T03:23:50.300Z,69.25
2022-10-17T03:26:22.261Z,69.18
2022-10-17T03:28:54.511Z,69.05
2022-10-17T03:31:26.232Z,69.12
2022-10-17T03:33:57.693Z,69.05
2022-10-17T03:36:28.756Z,69.20
2022-10-17T03:38:59.917Z,69.26
2022-10-17T03:41:31.546Z,69.32
2022-10-17T03:44:02.734Z,69.43
2022-10-17T03:46:33.802Z,69.41
2022-10-17T03:49:05.231Z,69.49
2022-10-17T03:51:37.939Z,69.58
2022-10-17T03:54:12.467Z,69.63
2022-10-17T03:56:44.006Z,69.76
2022-10-17T03:59:18.054Z,69.77
2022-10-17T04:01:54.564Z,69.75
2022-10-17T04:04:25.971Z,69.83
2022-10-17T04:06:57.159Z,69.85
2022-10-17T04:09:28.422Z,69.81
2022-10-17T04:12:07.243Z,69.91
2022-10-17T04:14:39.789Z,70.00
2022-10-17T04:17:11.228Z,70.22
2022-10-17T04:22:49.016Z,70.44
2022-10-17T04:25:21.207Z,70.59
2022-10-17T04:27:53.171Z,70.52
2022-10-17T04:30:24.547Z,70.44
2022-10-17T04:32:57.991Z,70.20
2022-10-17T04:37:25.421Z,69.92
2022-10-17T04:39:57.601Z,70.06
2022-10-17T04:42:29.965Z,70.02
2022-10-17T04:45:01.090Z,69.74
2022-10-17T04:47:32.450Z,69.71
2022-10-17T04:50:03.399Z,69.73
2022-10-17T04:52:37.552Z,69.67
2022-10-17T04:55:09.856Z,69.66
2022-10-17T04:57:40.792Z,69.90
2022-10-17T05:00:18.893Z,69.81
2022-10-17T05:02:56.398Z,69.89
2022-10-17T05:05:27.324Z,69.84
2022-10-17T05:07:58.732Z,69.88
2022-10-17T05:10:37.052Z,69.89
2022-10-17T05:13:08.946Z,69.87
2022-10-17T05:15:40.781Z,69.75
2022-10-17T05:18:11.788Z,69.79
2022-10-17T05:20:44.191Z,69.88
2022-10-17T05:23:14.952Z,69.87
2022-10-17T05:25:46.848Z,69.87
2022-10-17T05:28:17.767Z,69.76
2022-10-17T05:30:50.263Z,69.72
2022-10-17T05:33:21.251Z,69.94
2022-10-17T05:35:52.260Z,70.05
2022-10-17T05:38:23.255Z,70.06
2022-10-17T05:40:57.938Z,70.01
2022-10-17T05:43:29.741Z,70.03
2022-10-17T05:46:03.680Z,70.00
2022-10-17T05:48:36.515Z,70.23
2022-10-17T05:51:09.993Z,70.25
2022-10-17T05:53:42.794Z,70.06
2022-10-17T05:56:17.066Z,69.83
2022-10-17T05:58:50.966Z,69.67
2022-10-17T06:01:45.411Z,69.82
2022-10-17T06:04:16.366Z,69.82
2022-10-17T06:06:47.918Z,69.96
2022-10-17T06:09:18.964Z,70.09
2022-10-17T06:11:52.542Z,70.17
2022-10-17T06:14:24.701Z,69.89
2022-10-17T06:16:59.353Z,69.55
2022-10-17T06:19:31.302Z,69.28
2022-10-17T06:22:02.292Z,68.93
2022-10-17T06:24:33.367Z,68.59
2022-10-17T06:27:11.049Z,67.89
2022-10-17T06:29:42.996Z,67.02
2022-10-17T06:32:19.315Z,66.42
2022-10-17T06:34:51.146Z,65.90
2022-10-17T06:37:22.272Z,64.94
2022-10-17T06:39:53.196Z,64.23
2022-10-17T06:42:26.241Z,63.13
2022-10-17T06:45:20.253Z,62.19
2022-10-17T06:48:14.910Z,61.41
2022-10-17T06:50:47.832Z,61.25
2022-10-17T06:53:25.602Z,60.99
2022-10-17T06:56:12.587Z,59.61
2022-10-17T06:59:09.757Z,58.18
2022-10-17T07:01:44.618Z,57.04
2022-10-17T07:04:18.141Z,56.25
2022-10-17T07:06:49.085Z,55.73
2022-10-17T07:09:22.930Z,54.71
2022-10-17T07:11:54.337Z,53.88
2022-10-17T07:14:31.923Z,52.66
2022-10-17T07:17:03.751Z,52.17
2022-10-17T07:19:36.039Z,51.38
2022-10-17T07:22:07.180Z,50.41
2022-10-17T07:24:40.153Z,49.16
2022-10-17T07:27:18.656Z,48.73
2022-10-17T07:29:50.654Z,48.19
2022-10-17T07:32:27.849Z,48.00
2022-10-17T07:34:58.730Z,47.97
2022-10-17T07:37:30.427Z,47.75
2022-10-17T07:40:03.182Z,47.46
2022-10-17T07:42:34.214Z,47.13
2022-10-17T07:45:06.462Z,47.05
2022-10-17T07:47:37.917Z,47.22
2022-10-17T07:50:12.329Z,47.21
2022-10-17T07:52:43.906Z,47.21
2022-10-17T07:55:15.170Z,46.89
2022-10-17T07:57:46.032Z,46.54
2022-10-17T08:00:17.327Z,46.22
2022-10-17T08:02:48.542Z,46.01
2022-10-17T08:05:19.360Z,45.37
2022-10-17T08:07:50.153Z,44.08
2022-10-17T08:10:21.532Z,43.46
2022-10-17T08:12:52.385Z,43.30
2022-10-17T08:15:26.805Z,43.26
2022-10-17T08:18:01.149Z,43.23
2022-10-17T08:20:32.024Z,43.23
2022-10-17T08:23:02.803Z,43.65
2022-10-17T08:25:33.756Z,44.46
2022-10-17T08:28:04.754Z,44.85
2022-10-17T08:30:36.323Z,44.85
2022-10-17T08:33:07.198Z,44.89
2022-10-17T08:35:37.997Z,44.54
2022-10-17T08:38:11.037Z,43.88
2022-10-17T08:40:44.153Z,43.03
2022-10-17T08:43:25.683Z,42.14
2022-10-17T08:46:02.979Z,41.44
2022-10-17T08:48:42.733Z,40.67
2022-10-17T08:51:20.453Z,40.45
2022-10-17T08:53:57.063Z,40.10
2022-10-17T08:56:47.656Z,39.39
2022-10-17T08:59:22.864Z,38.64
2022-10-17T09:02:00.486Z,37.79
2022-10-17T09:05:01.961Z,37.39
2022-10-17T09:07:42.936Z,36.81
2022-10-17T09:10:27.060Z,36.97
2022-10-17T09:13:09.589Z,37.06
2022-10-17T09:16:00.722Z,36.89
2022-10-17T09:18:36.249Z,37.32
2022-10-17T09:21:19.331Z,38.08
2022-10-17T09:23:59.672Z,37.88
2022-10-17T09:26:42.159Z,38.50
2022-10-17T09:29:22.783Z,38.34
2022-10-17T09:32:01.839Z,38.30
2022-10-17T09:34:34.160Z,38.37
2022-10-17T09:37:10.649Z,38.84
2022-10-17T09:39:41.980Z,39.49
2022-10-17T09:42:18.707Z,40.34
2022-10-17T09:44:57.028Z,40.64
2022-10-17T09:47:35.831Z,41.18
2022-10-17T09:50:16.189Z,40.89
2022-10-17T09:52:47.725Z,40.70
2022-10-17T09:55:26.695Z,40.86
2022-10-17T09:57:59.746Z,40.83
2022-10-17T10:00:33.260Z,41.22
2022-10-17T10:03:17.677Z,41.24
2022-10-17T10:06:03.796Z,41.57
2022-10-17T10:08:37.562Z,41.56
2022-10-17T10:11:13.887Z,41.82
2022-10-17T10:13:46.255Z,41.88
2022-10-17T10:16:21.938Z,41.88
2022-10-17T10:18:53.852Z,42.20
2022-10-17T10:21:27.095Z,42.58
2022-10-17T10:24:13.597Z,42.47
2022-10-17T10:26:47.869Z,42.58
2022-10-17T10:29:31.060Z,42.43
2022-10-17T10:32:11.278Z,42.55
2022-10-17T10:34:57.071Z,42.64
2022-10-17T10:37:32.813Z,42.54
2022-10-17T10:40:06.673Z,42.70
2022-10-17T10:42:40.672Z,42.81
2022-10-17T10:45:42.802Z,43.14
2022-10-17T10:48:22.635Z,43.20
2022-10-17T10:50:58.533Z,43.52
2022-10-17T10:53:40.786Z,43.64
2022-10-17T10:56:17.828Z,43.73
2022-10-17T10:58:59.791Z,43.87
2022-10-17T11:01:37.114Z,44.10
2022-10-17T11:04:29.804Z,44.20
2022-10-17T11:07:14.313Z,44.62
2022-10-17T11:09:52.702Z,45.00
2022-10-17T11:12:26.625Z,45.04
2022-10-17T11:15:04.445Z,45.25
2022-10-17T11:17:41.608Z,45.63
2022-10-17T11:20:21.914Z,45.87
2022-10-17T11:22:58.846Z,45.83
2022-10-17T11:25:37.532Z,45.78
2022-10-17T11:28:16.853Z,45.80
2022-10-17T11:30:55.522Z,46.19
2022-10-17T11:33:35.742Z,46.34
2022-10-17T11:36:09.912Z,46.31
2022-10-17T11:38:47.661Z,46.52
2022-10-17T11:41:22.021Z,46.68
2022-10-17T11:43:58.753Z,46.75
2022-10-17T11:46:30.596Z,46.73
2022-10-17T11:49:08.605Z,46.91
2022-10-17T11:52:03.308Z,47.00
2022-10-17T11:54:40.299Z,47.23
2022-10-17T11:57:36.299Z,47.30
2022-10-17T12:00:22.583Z,47.18
2022-10-17T12:03:06.570Z,47.34
2022-10-17T12:05:44.550Z,47.49
2022-10-17T12:08:26.970Z,47.57
2022-10-17T12:11:05.241Z,47.67
2022-10-17T12:13:54.754Z,48.00
2022-10-17T12:16:47.517Z,47.97
2022-10-17T12:19:32.505Z,47.78
2022-10-17T12:22:26.010Z,47.75
2022-10-17T12:25:03.116Z,47.73
2022-10-17T12:27:46.343Z,47.73
2022-10-17T12:30:26.999Z,47.69
2022-10-17T12:33:08.455Z,47.81
2022-10-17T12:35:40.472Z,47.86
2022-10-17T12:38:30.950Z,47.79
2022-10-17T12:41:06.608Z,48.04
2022-10-17T12:43:52.619Z,47.86
2022-10-17T12:46:45.312Z,47.99
2022-10-17T12:49:41.635Z,48.27
2022-10-17T12:52:49.515Z,48.45
2022-10-17T12:55:21.368Z,48.66
2022-10-17T12:58:01.188Z,48.85
2022-10-17T13:00:38.479Z,48.96
2022-10-17T13:03:17.366Z,48.95
2022-10-17T13:05:51.954Z,48.86
2022-10-17T13:08:28.265Z,48.95
2022-10-17T13:10:59.971Z,48.97
2022-10-17T13:13:40.391Z,48.90
2022-10-17T13:16:28.468Z,49.21
2022-10-17T13:18:59.936Z,49.19
2022-10-17T13:21:31.283Z,49.31
2022-10-17T13:24:02.161Z,49.35
2022-10-17T13:26:33.034Z,49.31
2022-10-17T13:29:13.208Z,49.60
2022-10-17T13:31:45.664Z,49.73
2022-10-17T13:34:21.346Z,49.74
2022-10-17T13:36:56.744Z,49.99
2022-10-17T13:39:44.768Z,49.97
2022-10-17T13:42:37.720Z,50.12
2022-10-17T13:45:18.535Z,50.13
2022-10-17T13:47:49.914Z,50.22
2022-10-17T13:50:43.746Z,50.24
2022-10-17T13:53:26.801Z,50.33
2022-10-17T13:56:26.509Z,50.33
2022-10-17T13:58:56.290Z,50.50
2022-10-17T14:01:29.756Z,50.50
2022-10-17T14:04:08.903Z,50.60
2022-10-17T14:06:47.982Z,50.69
2022-10-17T14:09:25.719Z,50.92
2022-10-17T14:12:10.989Z,50.92
2022-10-17T14:15:09.146Z,51.03
2022-10-17T14:17:39.164Z,51.14
2022-10-17T14:23:34.177Z,51.38
2022-10-17T14:26:14.690Z,51.51
2022-10-17T14:28:47.918Z,51.62
2022-10-17T14:31:41.956Z,51.64
2022-10-17T14:34:29.760Z,51.72
2022-10-17T14:37:01.875Z,51.93
2022-10-17T14:39:32.800Z,52.02
2022-10-17T14:42:04.671Z,52.34
2022-10-17T14:44:38.161Z,52.28
2022-10-17T14:47:42.665Z,52.39
2022-10-17T14:50:22.428Z,52.39
2022-10-17T14:53:04.751Z,52.58
2022-10-17T14:55:37.236Z,52.68
2022-10-17T14:58:28.024Z,52.79
2022-10-17T15:00:59.883Z,52.84
2022-10-17T15:03:30.888Z,52.98
2022-10-17T15:06:17.291Z,53.14
2022-10-17T15:08:48.258Z,53.12
2022-10-17T15:11:19.092Z,53.20
2022-10-17T15:13:50.194Z,53.43
2022-10-17T15:16:23.432Z,53.38
2022-10-17T15:18:55.417Z,53.60
2022-10-17T15:21:47.270Z,53.63
2022-10-17T15:24:18.658Z,53.61
2022-10-17T15:26:50.403Z,53.67
2022-10-17T15:29:21.618Z,53.73
2022-10-17T15:31:52.664Z,53.85
2022-10-17T15:34:23.750Z,54.05
2022-10-17T15:36:55.182Z,54.07
2022-10-17T15:39:31.601Z,54.12
2022-10-17T15:42:02.913Z,54.25
2022-10-17T15:44:36.878Z,54.37
2022-10-17T15:47:13.494Z,54.57
2022-10-17T15:49:44.410Z,54.66
2022-10-17T15:52:15.522Z,54.75
2022-10-17T15:54:46.930Z,54.77
2022-10-17T15:57:24.449Z,54.91
2022-10-17T15:59:59.897Z,55.03
2022-10-17T16:02:33.405Z,55.13
2022-10-17T16:05:11.333Z,55.22
2022-10-17T16:07:42.477Z,55.31
2022-10-17T16:10:13.843Z,55.40
2022-10-17T16:12:45.366Z,55.68
2022-10-17T16:15:18.822Z,55.59
2022-10-17T16:17:49.994Z,55.83
2022-10-17T16:20:22.922Z,55.81
2022-10-17T16:22:59.986Z,55.92
2022-10-17T16:25:32.378Z,56.02
2022-10-17T16:28:08.442Z,56.00
2022-10-17T16:30:46.521Z,56.21
2022-10-17T16:33:17.878Z,56.28
2022-10-17T16:35:49.544Z,56.43
2022-10-17T16:38:20.583Z,56.40
2022-10-17T16:40:52.295Z,56.51
2022-10-17T16:43:23.121Z,56.54
2022-10-17T16:45:54.067Z,56.62
2022-10-17T16:48:29.497Z,56.71
2022-10-17T16:51:02.366Z,56.82
2022-10-17T16:53:33.284Z,56.80
2022-10-17T16:56:05.007Z,56.78
2022-10-17T16:58:40.248Z,56.91
2022-10-17T17:01:14.699Z,57.03
2022-10-17T17:03:51.382Z,57.02
2022-10-17T17:06:28.877Z,57.14
2022-10-17T17:09:00.662Z,57.25
2022-10-17T17:11:32.534Z,57.35
2022-10-17T17:14:04.126Z,57.51
2022-10-17T17:16:36.482Z,57.55
2022-10-17T17:19:13.097Z,57.53
2022-10-17T17:21:50.159Z,57.69
2022-10-17T17:24:22.199Z,57.77
2022-10-17T17:26:56.874Z,57.80
2022-10-17T17:29:28.411Z,57.96
2022-10-17T17:31:59.779Z,58.01
2022-10-17T17:34:32.273Z,58.07
2022-10-17T17:37:03.903Z,58.12
2022-10-17T17:39:35.097Z,58.27
2022-10-17T17:42:06.282Z,58.27
2022-10-17T17:44:37.462Z,58.42
2022-10-17T17:47:09.533Z,58.52
2022-10-17T17:49:40.596Z,58.55
2022-10-17T17:52:17.646Z,58.65
2022-10-17T17:54:48.846Z,58.74
2022-10-17T17:57:19.937Z,58.80
2022-10-17T17:59:52.362Z,58.84
2022-10-17T18:02:23.410Z,58.95
2022-10-17T18:04:55.379Z,58.99
2022-10-17T18:07:27.347Z,59.06
2022-10-17T18:09:58.488Z,59.15
2022-10-17T18:12:30.461Z,59.26
2022-10-17T18:15:02.120Z,59.28
2022-10-17T18:17:34.821Z,59.35
2022-10-17T18:20:07.201Z,59.47
2022-10-17T18:22:38.183Z,59.52
2022-10-17T18:25:12.580Z,59.61
2022-10-17T18:27:43.553Z,59.65
2022-10-17T18:30:21.161Z,59.75
2022-10-17T18:32:58.129Z,59.79
2022-10-17T18:35:29.253Z,59.87
2022-10-17T18:38:00.499Z,59.92
2022-10-17T18:40:32.076Z,59.98
2022-10-17T18:43:03.441Z,60.08
2022-10-17T18:45:36.714Z,60.20
2022-10-17T18:48:10.109Z,60.23
2022-10-17T18:50:41.512Z,60.31
2022-10-17T18:53:12.705Z,60.35
2022-10-17T18:55:43.837Z,60.42
2022-10-17T18:58:14.845Z,60.51
2022-10-17T19:00:46.444Z,60.56
2022-10-17T19:03:18.243Z,60.63
2022-10-17T19:05:49.257Z,60.69
2022-10-17T19:08:20.851Z,60.75
2022-10-17T19:10:52.190Z,60.79
2022-10-17T19:13:28.050Z,60.89
2022-10-17T19:15:59.268Z,60.92
2022-10-17T19:18:30.716Z,60.98
2022-10-17T19:21:06.197Z,61.01
2022-10-17T19:23:38.816Z,61.15
2022-10-17T19:26:13.182Z,61.25
2022-10-17T19:28:48.008Z,61.25
2022-10-17T19:32:12.102Z,61.28
2022-10-17T19:34:46.893Z,61.36
2022-10-17T19:37:18.061Z,61.43
2022-10-17T19:39:51.220Z,61.50
2022-10-17T19:42:22.283Z,61.53
2022-10-17T19:44:54.107Z,61.51
2022-10-17T19:47:25.815Z,61.63
2022-10-17T19:49:56.772Z,61.72
2022-10-17T19:52:28.785Z,61.72
2022-10-17T19:55:04.280Z,61.78
2022-10-17T19:57:36.556Z,61.83
2022-10-17T20:00:10.286Z,61.83
2022-10-17T20:02:43.348Z,61.86
2022-10-17T20:05:21.646Z,61.87
2022-10-17T20:07:55.382Z,61.95
2022-10-17T20:10:26.853Z,61.97
2022-10-17T20:12:58.041Z,62.03
2022-10-17T20:15:29.470Z,62.18
2022-10-17T20:18:01.921Z,62.19
2022-10-17T20:20:34.916Z,62.28
2022-10-17T20:23:06.563Z,62.37
2022-10-17T20:25:38.404Z,62.46
2022-10-17T20:28:09.739Z,62.49
2022-10-17T20:30:47.891Z,62.49
2022-10-17T20:33:19.065Z,62.59
2022-10-17T20:35:50.304Z,62.63
2022-10-17T20:38:21.426Z,62.77
2022-10-17T20:40:52.300Z,62.70
2022-10-17T20:43:23.677Z,62.67
2022-10-17T20:46:03.585Z,62.86
2022-10-17T20:48:39.703Z,62.96
2022-10-17T20:51:12.657Z,62.97
2022-10-17T20:53:43.922Z,62.99
2022-10-17T20:56:23.436Z,63.10
2022-10-17T20:58:57.478Z,63.09
2022-10-17T21:01:30.682Z,63.22
2022-10-17T21:04:20.694Z,63.19
2022-10-17T21:06:55.603Z,63.31
2022-10-17T21:09:27.473Z,63.33
2022-10-17T21:11:58.714Z,63.38
2022-10-17T21:14:30.424Z,63.41
2022-10-17T21:17:04.996Z,63.42
2022-10-17T21:19:35.347Z,63.43
2022-10-17T21:22:06.203Z,63.42
2022-10-17T21:24:39.111Z,63.49
2022-10-17T21:27:17.012Z,63.50
2022-10-17T21:29:48.707Z,63.47
2022-10-17T21:32:32.131Z,63.60
2022-10-17T21:35:11.656Z,63.56
2022-10-17T21:37:42.496Z,63.46
2022-10-17T21:40:15.366Z,63.55
2022-10-17T21:42:47.440Z,63.56
2022-10-17T21:45:25.228Z,63.59
2022-10-17T21:48:13.362Z,63.74
2022-10-17T21:50:44.711Z,63.79
2022-10-17T21:53:15.765Z,63.80
2022-10-17T21:55:46.970Z,63.85
2022-10-17T21:58:18.963Z,63.86
2022-10-17T22:00:50.711Z,63.87
2022-10-17T22:03:21.682Z,63.88
2022-10-17T22:06:07.091Z,63.92
2022-10-17T22:08:46.715Z,64.08
2022-10-17T22:11:20.747Z,64.12
2022-10-17T22:13:56.780Z,64.20
2022-10-17T22:16:28.214Z,64.15
2022-10-17T22:19:04.922Z,64.14
2022-10-17T22:21:38.937Z,64.10
2022-10-17T22:24:12.342Z,64.12
2022-10-17T22:26:45.067Z,64.26
2022-10-17T22:29:16.784Z,64.32
2022-10-17T22:31:47.847Z,64.28
2022-10-17T22:34:19.522Z,64.30
2022-10-17T22:36:50.385Z,64.30
2022-10-17T22:39:21.290Z,64.39
2022-10-17T22:41:52.104Z,64.32
2022-10-17T22:44:22.986Z,64.40
2022-10-17T22:46:53.734Z,64.43
2022-10-17T22:49:24.590Z,64.34
2022-10-17T22:51:55.402Z,64.42
2022-10-17T22:54:26.348Z,64.45
2022-10-17T22:56:57.193Z,64.49
2022-10-17T22:59:28.046Z,64.50
2022-10-17T23:01:58.885Z,64.49
2022-10-17T23:04:30.111Z,64.50
2022-10-17T23:07:01.045Z,64.59
2022-10-17T23:09:32.127Z,64.51
2022-10-17T23:12:02.906Z,64.56
2022-10-17T23:14:34.187Z,64.55
2022-10-17T23:17:05.011Z,64.51
2022-10-17T23:19:36.543Z,64.46
2022-10-17T23:22:08.467Z,64.53
2022-10-17T23:24:39.304Z,64.56
2022-10-17T23:27:10.120Z,64.57
2022-10-17T23:29:40.953Z,64.57
2022-10-17T23:32:11.789Z,64.48
2022-10-17T23:34:42.607Z,64.46
2022-10-17T23:37:13.571Z,64.51
2022-10-17T23:39:44.436Z,64.41
2022-10-17T23:42:15.614Z,64.32
2022-10-17T23:44:46.398Z,64.33
2022-10-17T23:47:17.396Z,64.28
2022-10-17T23:49:48.330Z,64.29
2022-10-17T23:52:19.343Z,64.11
2022-10-17T23:54:50.344Z,64.13
2022-10-17T23:57:21.301Z,64.10
2022-10-17T23:59:52.224Z,64.05
